Time;durP1;ratioP1;P1;durP2;ratioP2;P2;SDS_P1;SDS_P2;PMS_P1;PMS_P2;Temp;Humidity;BMP_temperature;BMP_pressure;BME280_temperature;BME280_humidity;BME280_pressure;Samples;Min_cycle;Max_cycle;Signal;HPM_P1;HPM_P2
2021/01/31 00:01:03;;;;;;;22.33;5.30;;;23.80;99.90;;;;;;5053630;28;20257;-72
2021/01/31 00:03:31;;;;;;;21.23;5.77;;;23.80;99.90;;;;;;5054251;28;20646;-68
2021/01/31 00:06:01;;;;;;;21.70;4.93;;;23.90;99.90;;;;;;5053521;28;20528;-68
2021/01/31 00:08:29;;;;;;;28.63;5.20;;;23.70;99.90;;;;;;5046307;28;20191;-71
2021/01/31 00:10:58;;;;;;;20.40;5.63;;;23.70;99.90;;;;;;5053396;28;20180;-70
2021/01/31 00:13:27;;;;;;;21.60;5.47;;;23.70;99.90;;;;;;5052867;28;20190;-67
2021/01/31 00:15:55;;;;;;;19.93;5.80;;;23.60;99.90;;;;;;5051702;28;20188;-70
2021/01/31 00:18:29;;;;;;;27.37;6.03;;;23.60;99.90;;;;;;5053742;28;20226;-69
2021/01/31 00:20:58;;;;;;;24.47;5.20;;;23.60;99.90;;;;;;5050996;28;20200;-68
2021/01/31 00:23:27;;;;;;;23.20;5.07;;;23.50;99.90;;;;;;5053712;28;20176;-70
2021/01/31 00:25:54;;;;;;;17.50;5.93;;;23.50;99.90;;;;;;5054564;28;20215;-70
2021/01/31 00:28:25;;;;;;;17.83;5.43;;;23.50;99.90;;;;;;5054037;28;20533;-69
2021/01/31 00:30:56;;;;;;;29.77;5.70;;;23.60;99.90;;;;;;5040678;28;20228;-69
2021/01/31 00:33:27;;;;;;;33.13;5.90;;;23.60;99.90;;;;;;5054151;28;20176;-72
2021/01/31 00:35:55;;;;;;;26.00;5.17;;;23.70;99.90;;;;;;5052379;28;20681;-72
2021/01/31 00:38:25;;;;;;;25.93;5.30;;;23.50;99.90;;;;;;5051627;28;20223;-69
2021/01/31 00:40:54;;;;;;;25.03;4.77;;;23.50;99.90;;;;;;5054374;28;20330;-72
2021/01/31 00:43:21;;;;;;;29.37;5.23;;;23.40;99.90;;;;;;5053065;28;20176;-71
2021/01/31 00:45:50;;;;;;;34.53;6.67;;;23.20;99.90;;;;;;5052785;28;20184;-71
2021/01/31 00:48:17;;;;;;;25.17;5.13;;;23.30;99.90;;;;;;5041248;28;20620;-70
2021/01/31 00:50:44;;;;;;;29.70;5.93;;;23.30;99.90;;;;;;5033707;28;20180;-70
2021/01/31 00:53:12;;;;;;;23.80;4.60;;;23.40;99.90;;;;;;5047276;28;20186;-70
2021/01/31 00:55:39;;;;;;;31.70;6.37;;;23.40;99.90;;;;;;5032584;28;20169;-69
2021/01/31 00:58:07;;;;;;;24.70;4.70;;;23.60;99.90;;;;;;5043790;28;20619;-69
2021/01/31 01:00:39;;;;;;;28.00;5.20;;;23.70;99.90;;;;;;5053079;28;20184;-69
2021/01/31 01:03:09;;;;;;;24.97;4.83;;;23.70;99.90;;;;;;5052187;28;20207;-69
2021/01/31 01:05:37;;;;;;;22.90;4.83;;;23.60;99.90;;;;;;5054171;28;20225;-69
2021/01/31 01:08:04;;;;;;;22.10;5.00;;;23.60;99.90;;;;;;5053729;28;20180;-69
2021/01/31 01:10:34;;;;;;;24.93;5.90;;;23.50;99.90;;;;;;5045693;28;20246;-68
2021/01/31 01:13:04;;;;;;;24.70;5.17;;;23.60;99.90;;;;;;5051139;28;20619;-71
2021/01/31 01:15:32;;;;;;;24.97;4.70;;;23.50;99.90;;;;;;5052818;28;20180;-69
2021/01/31 01:18:00;;;;;;;29.13;5.83;;;23.50;99.90;;;;;;5051132;28;20188;-73
2021/01/31 01:20:28;;;;;;;29.60;6.67;;;23.50;99.90;;;;;;5050304;28;20188;-69
2021/01/31 01:22:56;;;;;;;22.07;4.83;;;23.50;99.90;;;;;;5052369;28;20266;-72
2021/01/31 01:25:25;;;;;;;24.10;6.10;;;23.70;99.90;;;;;;5053032;28;20275;-69
2021/01/31 01:27:54;;;;;;;18.80;4.50;;;23.90;99.90;;;;;;5052394;28;20486;-70
2021/01/31 01:30:28;;;;;;;21.90;4.63;;;24.00;99.90;;;;;;5052796;28;20717;-69
2021/01/31 01:32:56;;;;;;;20.77;4.20;;;23.90;99.90;;;;;;5043309;28;20190;-69
2021/01/31 01:35:24;;;;;;;28.33;5.47;;;23.80;99.90;;;;;;5049268;28;20194;-70
2021/01/31 01:37:52;;;;;;;23.40;4.87;;;23.80;99.90;;;;;;5041903;28;20642;-69
2021/01/31 01:40:34;;;;;;;19.33;4.23;;;23.90;99.90;;;;;;5052566;28;20271;-70
2021/01/31 01:43:01;;;;;;;18.57;3.87;;;24.00;99.90;;;;;;5050131;28;20290;-71
2021/01/31 01:45:29;;;;;;;27.57;4.10;;;24.10;99.90;;;;;;5051461;28;20212;-69
2021/01/31 01:48:04;;;;;;;20.60;4.40;;;24.10;99.90;;;;;;5051510;28;20191;-71
2021/01/31 01:50:34;;;;;;;20.30;3.73;;;24.00;99.90;;;;;;5052560;28;20175;-70
2021/01/31 01:53:02;;;;;;;20.60;4.33;;;23.90;99.90;;;;;;5052275;28;20183;-70
2021/01/31 01:55:35;;;;;;;21.70;3.60;;;24.00;99.90;;;;;;5051793;28;20542;-70
2021/01/31 01:58:22;;;;;;;20.87;5.30;;;24.00;99.90;;;;;;5051702;28;20257;-70
2021/01/31 02:00:50;;;;;;;20.27;3.60;;;24.10;99.90;;;;;;5049440;28;20653;-70
2021/01/31 02:03:29;;;;;;;20.43;4.33;;;24.20;99.90;;;;;;5049828;28;20188;-68
2021/01/31 02:06:08;;;;;;;23.10;4.03;;;24.20;99.90;;;;;;5048963;28;20186;-68
2021/01/31 02:08:38;;;;;;;19.30;3.80;;;24.20;99.90;;;;;;5050054;28;20187;-71
2021/01/31 02:11:06;;;;;;;22.60;4.23;;;24.20;99.90;;;;;;5047538;28;20704;-72
2021/01/31 02:13:34;;;;;;;23.23;4.00;;;24.00;99.90;;;;;;5051762;28;20184;-70
2021/01/31 02:16:06;;;;;;;18.20;4.10;;;23.90;99.90;;;;;;5052024;28;20233;-70
2021/01/31 02:19:02;;;;;;;25.20;4.50;;;23.60;99.90;;;;;;5052430;28;20674;-70
2021/01/31 02:21:48;;;;;;;22.17;4.07;;;23.50;99.90;;;;;;5051540;28;20198;-70
2021/01/31 02:24:36;;;;;;;20.03;4.17;;;23.50;99.90;;;;;;5050060;28;20183;-71
2021/01/31 02:27:25;;;;;;;17.87;3.77;;;23.50;99.90;;;;;;5049961;28;20573;-72
2021/01/31 02:30:21;;;;;;;21.50;4.50;;;23.40;99.90;;;;;;5067086;28;20194;-72
2021/01/31 02:33:13;;;;;;;19.93;4.30;;;23.40;99.90;;;;;;5047421;28;20192;-69
2021/01/31 02:35:44;;;;;;;25.20;4.70;;;23.30;99.90;;;;;;5046424;28;20221;-74
2021/01/31 02:38:29;;;;;;;21.23;3.70;;;23.30;99.90;;;;;;5052754;28;20645;-71
2021/01/31 02:41:08;;;;;;;23.87;4.80;;;23.40;99.90;;;;;;5047593;28;20539;-70
2021/01/31 02:43:50;;;;;;;21.53;4.13;;;23.40;99.90;;;;;;5050417;28;20548;-70
2021/01/31 02:46:56;;;;;;;20.33;4.23;;;23.30;99.90;;;;;;5048517;28;20186;-71
2021/01/31 02:49:49;;;;;;;22.57;4.33;;;23.20;99.90;;;;;;5046511;28;20254;-68
2021/01/31 02:52:58;;;;;;;25.60;4.90;;;23.20;99.90;;;;;;5052195;28;20176;-69
2021/01/31 02:55:32;;;;;;;23.13;5.10;;;23.10;99.90;;;;;;5035538;28;20198;-71
2021/01/31 02:58:05;;;;;;;23.43;4.23;;;23.00;99.90;;;;;;5051874;28;20202;-71
2021/01/31 03:00:52;;;;;;;23.87;4.07;;;22.90;99.90;;;;;;5051736;28;20190;-71
2021/01/31 03:03:57;;;;;;;19.03;4.73;;;22.80;99.90;;;;;;5051794;28;20179;-71
2021/01/31 03:06:32;;;;;;;22.87;4.03;;;22.90;99.90;;;;;;5027957;28;20525;-69
2021/01/31 03:09:12;;;;;;;19.70;3.73;;;22.90;99.90;;;;;;5051431;28;20199;-69
2021/01/31 03:11:48;;;;;;;24.10;5.37;;;22.90;99.90;;;;;;5050605;28;20179;-71
2021/01/31 03:14:29;;;;;;;18.73;4.33;;;22.90;99.90;;;;;;5052334;28;20176;-72
2021/01/31 03:17:09;;;;;;;19.13;3.67;;;22.80;99.90;;;;;;5050855;28;20554;-71
2021/01/31 03:20:03;;;;;;;22.50;3.57;;;22.80;99.90;;;;;;5052410;28;20678;-71
2021/01/31 03:22:52;;;;;;;22.27;4.13;;;22.70;99.90;;;;;;5047213;28;20176;-72
2021/01/31 03:25:30;;;;;;;26.63;4.67;;;22.70;99.90;;;;;;5052732;28;20192;-71
2021/01/31 03:27:57;;;;;;;18.93;3.80;;;22.70;99.90;;;;;;5052368;28;20418;-72
2021/01/31 03:30:25;;;;;;;19.97;4.43;;;22.80;99.90;;;;;;5052478;28;20183;-70
2021/01/31 03:33:16;;;;;;;20.03;4.40;;;22.90;99.90;;;;;;5051895;28;20179;-70
2021/01/31 03:35:49;;;;;;;26.50;4.20;;;23.10;99.90;;;;;;5051289;28;20188;-70
2021/01/31 03:38:17;;;;;;;23.63;4.93;;;23.20;99.90;;;;;;5052318;28;20192;-71
2021/01/31 03:40:49;;;;;;;27.27;6.87;;;23.20;99.90;;;;;;5052115;28;20206;-70
2021/01/31 03:43:17;;;;;;;27.60;6.77;;;23.10;99.90;;;;;;5051222;28;20637;-71
2021/01/31 03:46:03;;;;;;;24.27;5.37;;;23.00;99.90;;;;;;5051976;28;20184;-69
2021/01/31 03:48:36;;;;;;;22.53;4.37;;;23.00;99.90;;;;;;5051090;28;20184;-72
2021/01/31 03:51:04;;;;;;;21.40;4.23;;;22.90;99.90;;;;;;5048162;28;20172;-70
2021/01/31 03:53:32;;;;;;;23.77;4.20;;;22.80;99.90;;;;;;5046425;28;20202;-72
2021/01/31 03:56:00;;;;;;;18.27;3.80;;;22.80;99.90;;;;;;5045220;28;20186;-72
2021/01/31 03:58:28;;;;;;;18.17;4.77;;;22.90;99.90;;;;;;5050640;28;20200;-72
2021/01/31 04:01:01;;;;;;;20.33;3.93;;;23.00;99.90;;;;;;5048708;28;20550;-71
2021/01/31 04:03:37;;;;;;;28.00;4.37;;;23.00;99.90;;;;;;5043019;28;20180;-70
2021/01/31 04:06:12;;;;;;;27.70;4.40;;;23.10;99.90;;;;;;5049653;28;20245;-70
2021/01/31 04:08:42;;;;;;;18.57;4.33;;;23.10;99.90;;;;;;5053613;28;20282;-69
2021/01/31 04:11:09;;;;;;;22.30;4.73;;;23.20;99.90;;;;;;5053896;28;20180;-72
2021/01/31 04:13:37;;;;;;;26.13;4.17;;;23.20;99.90;;;;;;5054673;28;20265;-69
2021/01/31 04:16:06;;;;;;;15.50;3.90;;;23.20;99.90;;;;;;5052476;28;20183;-72
2021/01/31 04:18:34;;;;;;;28.33;5.23;;;23.10;99.90;;;;;;5052882;28;20216;-72
2021/01/31 04:21:01;;;;;;;18.77;5.00;;;23.20;99.90;;;;;;5052575;28;20211;-71
2021/01/31 04:23:28;;;;;;;26.20;4.70;;;23.10;99.90;;;;;;5054973;28;20270;-71
2021/01/31 04:25:56;;;;;;;24.60;5.03;;;23.00;99.90;;;;;;5050670;28;20219;-71
2021/01/31 04:28:25;;;;;;;23.67;7.60;;;23.00;99.90;;;;;;5039037;28;20196;-71
2021/01/31 04:30:57;;;;;;;18.13;4.67;;;22.90;99.90;;;;;;5054222;28;20633;-71
2021/01/31 04:33:25;;;;;;;19.00;4.83;;;22.70;99.90;;;;;;5059336;28;20180;-71
2021/01/31 04:35:54;;;;;;;21.27;4.53;;;22.60;99.90;;;;;;5054074;28;20259;-71
2021/01/31 04:38:21;;;;;;;23.97;4.63;;;22.60;99.90;;;;;;5053136;28;20219;-72
2021/01/31 04:40:48;;;;;;;22.07;4.90;;;22.50;99.90;;;;;;5053411;28;20184;-72
2021/01/31 04:43:19;;;;;;;27.00;5.13;;;22.50;99.90;;;;;;5053692;28;20191;-73
2021/01/31 04:45:48;;;;;;;22.30;4.43;;;22.50;99.90;;;;;;5051840;28;20263;-74
2021/01/31 04:48:37;;;;;;;26.13;4.57;;;22.40;99.90;;;;;;5053835;28;20183;-75
2021/01/31 04:51:53;;;;;;;24.47;4.23;;;22.30;99.90;;;;;;5051208;28;20175;-75
2021/01/31 04:54:28;;;;;;;20.07;4.10;;;22.40;99.90;;;;;;5016876;28;20732;-76
2021/01/31 04:57:19;;;;;;;23.67;4.00;;;22.20;99.90;;;;;;5052155;28;20208;-72
2021/01/31 04:59:50;;;;;;;27.00;5.00;;;22.20;99.90;;;;;;5054222;28;20627;-72
2021/01/31 05:02:43;;;;;;;25.20;4.43;;;22.10;99.90;;;;;;5054661;28;20176;-74
2021/01/31 05:05:24;;;;;;;13.97;3.60;;;22.00;99.90;;;;;;5034470;28;20553;-76
2021/01/31 05:08:01;;;;;;;20.27;4.50;;;22.10;99.90;;;;;;5045383;28;20187;-78
2021/01/31 05:10:29;;;;;;;18.93;3.97;;;22.00;99.90;;;;;;5053107;28;20741;-72
2021/01/31 05:12:59;;;;;;;25.77;4.57;;;22.00;99.90;;;;;;5053665;28;20174;-70
2021/01/31 05:15:30;;;;;;;17.80;4.50;;;22.00;99.90;;;;;;5052901;28;20183;-70
2021/01/31 05:17:59;;;;;;;29.87;4.40;;;21.90;99.90;;;;;;5053782;28;20174;-71
2021/01/31 05:20:31;;;;;;;16.80;3.57;;;22.00;99.90;;;;;;5053795;28;20214;-71
2021/01/31 05:23:00;;;;;;;22.03;4.87;;;22.00;99.90;;;;;;5053656;28;20591;-70
2021/01/31 05:25:33;;;;;;;28.63;4.50;;;22.10;99.90;;;;;;5053656;28;20305;-70
2021/01/31 05:28:04;;;;;;;24.60;4.50;;;22.20;99.90;;;;;;5054141;28;20235;-74
2021/01/31 05:30:32;;;;;;;22.27;4.00;;;22.20;99.90;;;;;;5053252;28;20519;-75
2021/01/31 05:33:15;;;;;;;31.90;4.83;;;22.30;99.90;;;;;;5051186;28;20179;-74
2021/01/31 05:35:46;;;;;;;21.23;4.20;;;22.40;99.90;;;;;;5048048;28;20179;-72
2021/01/31 05:38:32;;;;;;;26.97;4.83;;;22.40;99.90;;;;;;5052571;28;20267;-70
2021/01/31 05:41:00;;;;;;;18.90;4.07;;;22.30;99.90;;;;;;5049139;28;20227;-72
2021/01/31 05:43:28;;;;;;;22.03;3.63;;;22.40;99.90;;;;;;5045803;28;20815;-72
2021/01/31 05:45:55;;;;;;;19.07;3.70;;;22.40;99.90;;;;;;5051376;28;20689;-74
2021/01/31 05:48:37;;;;;;;26.37;3.77;;;22.30;99.90;;;;;;5052785;28;20180;-75
2021/01/31 05:51:22;;;;;;;13.83;3.57;;;22.40;99.90;;;;;;5051760;28;20259;-74
2021/01/31 05:53:50;;;;;;;19.70;4.23;;;22.40;99.90;;;;;;5052392;28;20218;-71
2021/01/31 05:56:27;;;;;;;24.33;4.77;;;22.40;99.90;;;;;;5046811;28;20542;-73
2021/01/31 05:59:03;;;;;;;21.33;3.77;;;22.40;99.90;;;;;;5051990;28;20262;-71
2021/01/31 06:01:30;;;;;;;22.20;4.47;;;22.50;99.90;;;;;;5044711;28;20192;-74
2021/01/31 06:04:15;;;;;;;29.13;4.40;;;22.50;99.90;;;;;;5044855;28;20263;-70
2021/01/31 06:06:47;;;;;;;23.00;3.80;;;22.60;99.90;;;;;;5052707;28;20191;-74
2021/01/31 06:09:41;;;;;;;22.00;3.73;;;22.60;99.90;;;;;;5052898;28;20179;-71
2021/01/31 06:12:35;;;;;;;20.60;3.80;;;22.60;99.90;;;;;;5051688;28;20183;-74
2021/01/31 06:15:30;;;;;;;17.10;3.63;;;22.70;99.90;;;;;;5050346;28;20389;-72
2021/01/31 06:18:33;;;;;;;21.47;5.13;;;22.70;99.90;;;;;;5052845;28;20180;-71
2021/01/31 06:21:16;;;;;;;17.37;3.93;;;22.70;99.90;;;;;;5029998;28;20200;-71
2021/01/31 06:23:47;;;;;;;17.40;3.33;;;22.60;99.90;;;;;;5051788;28;20195;-70
2021/01/31 06:26:38;;;;;;;16.00;3.27;;;22.70;99.90;;;;;;5048850;28;20223;-70
2021/01/31 06:29:23;;;;;;;23.23;3.90;;;22.70;99.90;;;;;;5051915;28;20218;-73
2021/01/31 06:31:58;;;;;;;22.73;4.37;;;22.60;99.90;;;;;;5050867;28;20176;-71
2021/01/31 06:34:25;;;;;;;22.00;5.07;;;22.60;99.90;;;;;;5051845;28;20249;-71
2021/01/31 06:37:15;;;;;;;29.70;4.37;;;22.60;99.90;;;;;;5050293;28;20564;-72
2021/01/31 06:39:57;;;;;;;18.93;4.13;;;22.60;99.90;;;;;;5046256;28;20211;-71
2021/01/31 06:42:46;;;;;;;21.10;3.70;;;22.70;99.90;;;;;;5049528;28;20180;-72
2021/01/31 06:45:26;;;;;;;20.77;4.57;;;22.70;99.90;;;;;;5051033;28;20197;-70
2021/01/31 06:48:11;;;;;;;19.63;3.90;;;22.60;99.90;;;;;;5051298;28;20544;-69
2021/01/31 06:50:56;;;;;;;27.03;4.77;;;22.60;99.90;;;;;;5043930;28;20180;-69
2021/01/31 06:53:43;;;;;;;22.03;4.13;;;22.60;99.90;;;;;;5051083;28;20532;-70
2021/01/31 06:56:40;;;;;;;19.93;3.67;;;22.60;99.90;;;;;;5055395;28;20688;-73
2021/01/31 06:59:20;;;;;;;28.77;4.50;;;22.50;99.90;;;;;;5050491;28;20294;-70
2021/01/31 07:02:05;;;;;;;19.37;3.37;;;22.40;99.90;;;;;;5045022;28;20175;-73
2021/01/31 07:04:52;;;;;;;20.87;3.70;;;22.40;99.90;;;;;;5041294;28;20196;-70
2021/01/31 07:07:35;;;;;;;22.70;3.63;;;22.30;99.90;;;;;;5034749;28;20187;-70
2021/01/31 07:10:21;;;;;;;19.47;4.10;;;22.20;99.90;;;;;;5050897;28;20182;-71
2021/01/31 07:13:06;;;;;;;24.13;4.17;;;22.20;99.90;;;;;;5046895;28;20193;-70
2021/01/31 07:16:18;;;;;;;22.00;4.70;;;22.10;99.90;;;;;;5049440;28;20202;-69
2021/01/31 07:19:08;;;;;;;20.40;3.43;;;22.00;99.90;;;;;;5041371;28;20203;-70
2021/01/31 07:21:49;;;;;;;28.53;4.73;;;22.00;99.90;;;;;;5047307;28;20233;-71
2021/01/31 07:24:40;;;;;;;26.27;4.73;;;22.00;99.90;;;;;;5048075;28;20180;-72
2021/01/31 07:27:18;;;;;;;22.20;3.87;;;22.00;99.90;;;;;;5047860;28;20234;-69
2021/01/31 07:29:58;;;;;;;19.17;4.17;;;21.90;99.90;;;;;;5051243;28;20248;-71
2021/01/31 07:32:33;;;;;;;29.67;4.53;;;22.00;99.90;;;;;;5048731;28;20176;-72
2021/01/31 07:35:08;;;;;;;26.77;4.10;;;22.00;99.90;;;;;;5051626;28;20218;-71
2021/01/31 07:37:38;;;;;;;22.60;3.33;;;22.00;99.90;;;;;;5052108;28;20233;-71
2021/01/31 07:40:16;;;;;;;24.53;4.07;;;22.00;99.90;;;;;;5052281;28;20216;-72
2021/01/31 07:42:44;;;;;;;22.77;4.87;;;22.00;99.90;;;;;;5055029;28;20179;-71
2021/01/31 07:45:17;;;;;;;21.50;4.73;;;22.00;99.90;;;;;;5055852;28;20191;-71
2021/01/31 07:47:44;;;;;;;17.57;4.30;;;21.90;99.90;;;;;;5055275;28;20188;-71
2021/01/31 07:50:16;;;;;;;20.83;4.47;;;21.90;99.90;;;;;;5054001;28;20229;-71
2021/01/31 07:52:57;;;;;;;22.23;4.00;;;21.80;99.90;;;;;;5054415;28;20259;-78
2021/01/31 07:55:32;;;;;;;29.93;6.13;;;21.80;99.90;;;;;;5054818;28;20641;-72
2021/01/31 07:58:36;;;;;;;26.60;7.73;;;21.70;99.90;;;;;;5055398;28;20179;-78
2021/01/31 08:01:04;;;;;;;23.40;4.40;;;21.60;99.90;;;;;;5024168;28;20192;-75
2021/01/31 08:03:39;;;;;;;24.50;5.20;;;21.60;99.90;;;;;;5054431;28;20650;-75
2021/01/31 08:06:19;;;;;;;22.17;3.73;;;21.60;99.90;;;;;;5054939;28;20256;-80
2021/01/31 08:08:55;;;;;;;23.27;4.83;;;21.50;99.90;;;;;;5052462;28;20226;-76
2021/01/31 08:11:25;;;;;;;24.90;4.57;;;21.50;99.90;;;;;;5054326;28;20218;-77
2021/01/31 08:13:54;;;;;;;38.73;5.57;;;21.50;99.90;;;;;;5053351;28;20191;-76
2021/01/31 08:16:48;;;;;;;18.77;4.00;;;21.40;99.90;;;;;;5052943;28;20181;-74
2021/01/31 08:19:19;;;;;;;29.03;4.50;;;21.40;99.90;;;;;;5053229;28;20618;-78
2021/01/31 08:22:06;;;;;;;26.40;4.33;;;21.40;99.90;;;;;;5054619;28;20179;-77
2021/01/31 08:25:03;;;;;;;28.90;4.07;;;21.40;99.90;;;;;;5054206;28;20187;-75
2021/01/31 08:27:55;;;;;;;28.57;4.80;;;21.40;99.90;;;;;;5052832;28;20311;-73
2021/01/31 08:30:41;;;;;;;20.70;4.50;;;21.40;99.90;;;;;;5053836;28;20538;-72
2021/01/31 08:33:12;;;;;;;30.27;4.50;;;21.50;99.90;;;;;;5054076;28;20668;-72
2021/01/31 08:35:42;;;;;;;23.97;4.03;;;21.50;99.90;;;;;;5049187;28;20179;-70
2021/01/31 08:38:16;;;;;;;22.77;4.03;;;21.50;99.90;;;;;;5046917;28;20172;-74
2021/01/31 08:41:04;;;;;;;25.23;4.20;;;21.50;99.90;;;;;;5053280;28;20560;-72
2021/01/31 08:43:37;;;;;;;20.60;4.03;;;21.60;99.90;;;;;;5052871;28;20180;-70
2021/01/31 08:46:16;;;;;;;25.00;4.20;;;21.50;99.90;;;;;;5047918;28;20634;-75
2021/01/31 08:48:56;;;;;;;25.27;4.40;;;21.50;99.90;;;;;;5053210;28;20200;-75
2021/01/31 08:51:27;;;;;;;28.17;4.63;;;21.50;99.90;;;;;;5045066;28;20191;-71
2021/01/31 08:54:20;;;;;;;17.23;3.90;;;21.50;99.90;;;;;;5057699;28;20184;-72
2021/01/31 08:57:08;;;;;;;27.27;6.93;;;21.60;99.90;;;;;;5046659;28;20198;-73
2021/01/31 08:59:46;;;;;;;21.67;5.40;;;21.60;99.90;;;;;;5051847;28;20224;-73
2021/01/31 09:02:17;;;;;;;18.90;4.27;;;21.50;99.90;;;;;;5051365;28;20180;-72
2021/01/31 09:04:50;;;;;;;31.73;4.47;;;21.50;99.90;;;;;;5052729;28;20183;-73
2021/01/31 09:07:44;;;;;;;20.50;4.43;;;21.50;99.90;;;;;;5052923;28;20681;-71
2021/01/31 09:10:21;;;;;;;18.40;3.63;;;21.60;99.90;;;;;;5052866;28;20172;-71
2021/01/31 09:12:48;;;;;;;19.27;3.80;;;21.50;99.90;;;;;;5050780;28;20175;-72
2021/01/31 09:15:23;;;;;;;20.83;4.60;;;21.50;99.90;;;;;;5051600;28;20199;-72
2021/01/31 09:17:51;;;;;;;20.03;3.90;;;21.60;99.90;;;;;;5051780;28;20712;-73
2021/01/31 09:20:29;;;;;;;21.63;4.33;;;21.60;99.90;;;;;;5053229;28;20748;-73
2021/01/31 09:23:01;;;;;;;19.13;3.93;;;21.60;99.90;;;;;;5052046;28;20351;-72
2021/01/31 09:25:33;;;;;;;20.03;4.40;;;21.60;99.90;;;;;;5052936;28;20187;-73
2021/01/31 09:28:18;;;;;;;23.80;3.80;;;21.60;99.90;;;;;;5053153;28;20184;-73
2021/01/31 09:30:46;;;;;;;23.43;4.60;;;21.60;99.90;;;;;;5050475;28;20540;-76
2021/01/31 09:33:47;;;;;;;23.73;5.50;;;21.60;99.90;;;;;;5052131;28;20279;-73
2021/01/31 09:36:34;;;;;;;15.43;4.50;;;21.60;99.90;;;;;;5042205;28;20325;-73
2021/01/31 09:39:05;;;;;;;24.40;4.20;;;21.70;99.90;;;;;;5051796;28;20207;-72
2021/01/31 09:41:34;;;;;;;19.37;3.90;;;21.60;99.90;;;;;;5050753;28;20245;-73
2021/01/31 09:44:08;;;;;;;21.77;3.50;;;21.70;99.90;;;;;;5050588;28;20206;-73
2021/01/31 09:46:37;;;;;;;21.23;4.63;;;21.70;99.90;;;;;;5051418;28;20218;-73
2021/01/31 09:49:15;;;;;;;24.73;4.17;;;21.70;99.90;;;;;;5049518;28;20191;-73
2021/01/31 09:51:43;;;;;;;20.47;3.57;;;21.70;99.90;;;;;;5051699;28;20257;-74
2021/01/31 09:54:17;;;;;;;19.37;3.53;;;21.70;99.90;;;;;;5050319;28;20168;-72
2021/01/31 09:56:54;;;;;;;23.03;4.17;;;21.70;99.90;;;;;;5050697;28;20195;-73
2021/01/31 09:59:28;;;;;;;24.40;3.93;;;21.70;99.90;;;;;;5045227;28;20214;-74
2021/01/31 10:02:15;;;;;;;21.40;3.80;;;21.70;99.90;;;;;;5051388;28;20548;-72
2021/01/31 10:04:44;;;;;;;17.30;3.23;;;21.60;99.90;;;;;;5048062;28;20183;-75
2021/01/31 10:07:14;;;;;;;30.70;4.63;;;21.70;99.90;;;;;;5051126;28;20172;-74
2021/01/31 10:09:50;;;;;;;19.37;3.33;;;21.60;99.90;;;;;;5053666;28;20544;-73
2021/01/31 10:12:33;;;;;;;27.57;4.10;;;21.60;99.90;;;;;;5047049;28;20187;-71
2021/01/31 10:15:08;;;;;;;18.57;3.43;;;21.60;99.90;;;;;;5050690;28;20233;-71
2021/01/31 10:17:43;;;;;;;20.97;3.47;;;21.60;99.90;;;;;;5051709;28;20805;-72
2021/01/31 10:20:34;;;;;;;22.23;3.50;;;21.60;99.90;;;;;;5050458;28;20870;-69
2021/01/31 10:23:07;;;;;;;22.10;3.73;;;21.60;99.90;;;;;;5050944;28;20710;-71
2021/01/31 10:25:36;;;;;;;22.47;3.60;;;21.60;99.90;;;;;;5051406;28;20187;-71
2021/01/31 10:28:05;;;;;;;24.40;3.47;;;21.60;99.90;;;;;;5051249;28;20188;-73
2021/01/31 10:30:58;;;;;;;20.30;4.97;;;21.60;99.90;;;;;;5050662;28;20184;-74
2021/01/31 10:33:48;;;;;;;22.90;3.80;;;21.60;99.90;;;;;;5049079;28;20199;-72
2021/01/31 10:36:25;;;;;;;28.43;5.33;;;21.70;99.90;;;;;;5051003;28;20188;-73
2021/01/31 10:39:25;;;;;;;24.47;4.30;;;21.70;99.90;;;;;;5044345;28;20200;-72
2021/01/31 10:41:55;;;;;;;16.93;3.13;;;21.70;99.90;;;;;;5040896;28;20238;-74
2021/01/31 10:44:29;;;;;;;24.07;4.13;;;21.70;99.90;;;;;;5051149;28;20257;-72
2021/01/31 10:46:56;;;;;;;26.23;4.07;;;21.70;99.90;;;;;;5050489;28;20176;-73
2021/01/31 10:49:23;;;;;;;25.30;4.80;;;21.70;99.90;;;;;;5046821;28;20207;-74
2021/01/31 10:51:52;;;;;;;29.23;10.53;;;21.70;99.90;;;;;;5050617;28;20226;-73
2021/01/31 10:54:23;;;;;;;25.63;6.03;;;21.70;99.90;;;;;;5053141;28;20211;-73
2021/01/31 10:56:51;;;;;;;19.53;4.07;;;21.70;99.90;;;;;;5054420;28;20582;-74
2021/01/31 10:59:18;;;;;;;15.20;3.10;;;21.70;99.90;;;;;;5050396;28;20199;-74
2021/01/31 11:01:47;;;;;;;24.77;4.47;;;21.70;99.90;;;;;;5051194;28;20263;-74
2021/01/31 11:04:19;;;;;;;18.10;3.23;;;21.70;99.90;;;;;;5050273;28;20522;-72
2021/01/31 11:06:47;;;;;;;24.70;3.07;;;21.70;99.90;;;;;;5050869;28;20176;-72
2021/01/31 11:09:16;;;;;;;22.20;3.67;;;21.70;99.90;;;;;;5051151;28;20194;-70
2021/01/31 11:11:44;;;;;;;17.60;3.87;;;21.70;99.90;;;;;;5050655;28;20183;-73
2021/01/31 11:14:12;;;;;;;20.23;3.87;;;21.70;99.90;;;;;;5049750;28;20590;-73
2021/01/31 11:16:39;;;;;;;23.53;3.20;;;21.70;99.90;;;;;;5052537;28;20178;-73
2021/01/31 11:19:07;;;;;;;20.07;3.70;;;21.70;99.90;;;;;;5054111;28;20203;-72
2021/01/31 11:21:34;;;;;;;24.53;3.90;;;21.70;99.90;;;;;;5054768;28;20241;-71
2021/01/31 11:24:02;;;;;;;20.30;4.03;;;21.70;99.90;;;;;;5055111;28;20714;-73
2021/01/31 11:26:29;;;;;;;16.07;2.90;;;21.70;99.90;;;;;;5055341;28;20621;-72
2021/01/31 11:28:56;;;;;;;21.13;3.30;;;21.70;99.90;;;;;;5054511;28;20180;-74
2021/01/31 11:31:24;;;;;;;21.80;3.70;;;21.70;99.90;;;;;;5055430;28;20247;-74
2021/01/31 11:33:55;;;;;;;18.97;3.33;;;21.70;99.90;;;;;;5055177;28;20183;-73
2021/01/31 11:36:23;;;;;;;21.20;3.27;;;21.70;99.90;;;;;;5054172;28;20696;-73
2021/01/31 11:38:51;;;;;;;12.43;2.80;;;21.70;99.90;;;;;;5055225;28;20219;-74
2021/01/31 11:41:19;;;;;;;18.00;2.97;;;21.70;99.90;;;;;;5049144;28;20180;-71
2021/01/31 11:43:46;;;;;;;19.17;3.37;;;21.70;99.90;;;;;;5050116;28;20708;-74
2021/01/31 11:46:14;;;;;;;23.07;3.37;;;21.70;99.90;;;;;;5053504;28;20180;-70
2021/01/31 11:48:41;;;;;;;25.53;3.30;;;21.70;99.90;;;;;;5052090;28;20203;-72
2021/01/31 11:51:09;;;;;;;16.93;3.30;;;21.70;99.90;;;;;;5068488;28;20649;-75
2021/01/31 11:53:38;;;;;;;20.77;3.50;;;21.70;99.90;;;;;;5054988;28;20538;-74
2021/01/31 11:56:05;;;;;;;20.27;3.37;;;21.70;99.90;;;;;;5054759;28;20188;-72
2021/01/31 11:58:33;;;;;;;19.23;3.10;;;21.80;99.90;;;;;;5055067;28;20191;-71
2021/01/31 12:01:00;;;;;;;15.20;3.03;;;21.70;99.90;;;;;;5053099;28;20597;-71
2021/01/31 12:03:27;;;;;;;21.03;3.07;;;21.70;99.90;;;;;;5055081;28;20176;-71
2021/01/31 12:05:55;;;;;;;16.07;3.20;;;21.70;99.90;;;;;;5054624;28;20176;-71
2021/01/31 12:08:22;;;;;;;19.77;2.93;;;21.70;99.90;;;;;;5049229;28;20204;-72
2021/01/31 12:10:50;;;;;;;23.03;3.33;;;21.80;99.90;;;;;;5051434;28;20184;-69
2021/01/31 12:13:19;;;;;;;19.10;3.70;;;21.70;99.90;;;;;;5041320;28;20264;-71
2021/01/31 12:15:46;;;;;;;19.53;3.33;;;21.70;99.90;;;;;;5052614;28;20650;-73
2021/01/31 12:18:14;;;;;;;17.67;2.77;;;21.70;99.90;;;;;;5051618;28;20172;-70
2021/01/31 12:20:41;;;;;;;21.13;3.57;;;21.70;99.90;;;;;;5054753;28;20184;-69
2021/01/31 12:23:08;;;;;;;11.70;2.70;;;21.70;99.90;;;;;;5054838;28;20214;-70
2021/01/31 12:25:37;;;;;;;19.33;2.80;;;21.70;99.90;;;;;;5055010;28;20211;-70
2021/01/31 12:28:05;;;;;;;22.13;3.57;;;21.70;99.90;;;;;;5053598;28;20192;-70
2021/01/31 12:30:33;;;;;;;19.73;3.30;;;21.70;99.90;;;;;;5054219;28;20191;-70
2021/01/31 12:33:03;;;;;;;18.10;3.10;;;21.70;99.90;;;;;;5054120;28;20283;-70
2021/01/31 12:35:31;;;;;;;16.87;2.73;;;21.70;99.90;;;;;;5054837;28;20262;-70
2021/01/31 12:37:59;;;;;;;16.67;2.70;;;21.70;99.90;;;;;;5053583;28;20654;-70
2021/01/31 12:40:29;;;;;;;20.63;3.43;;;21.70;99.90;;;;;;5054568;28;20223;-72
2021/01/31 12:42:56;;;;;;;18.40;3.40;;;21.70;99.90;;;;;;5054505;28;20270;-73
2021/01/31 12:45:24;;;;;;;25.23;3.20;;;21.70;99.90;;;;;;5046651;28;20190;-71
2021/01/31 12:47:52;;;;;;;23.03;3.20;;;21.70;99.90;;;;;;5054723;28;20271;-72
2021/01/31 12:50:24;;;;;;;22.17;3.27;;;21.70;99.90;;;;;;5053068;28;20188;-70
2021/01/31 12:52:51;;;;;;;20.70;2.77;;;21.70;99.90;;;;;;5052922;28;20187;-77
2021/01/31 12:55:19;;;;;;;21.97;3.07;;;21.70;99.90;;;;;;5053904;28;20627;-71
2021/01/31 12:57:46;;;;;;;17.37;3.33;;;21.70;99.90;;;;;;5049798;28;20183;-74
2021/01/31 13:00:17;;;;;;;14.07;3.23;;;21.70;99.90;;;;;;5049673;28;20606;-71
2021/01/31 13:02:45;;;;;;;18.03;2.43;;;21.70;99.90;;;;;;5052514;28;20337;-70
2021/01/31 13:05:16;;;;;;;20.30;2.93;;;21.70;99.90;;;;;;5051201;28;20206;-71
2021/01/31 13:07:43;;;;;;;22.07;3.47;;;21.70;99.90;;;;;;5051879;28;20534;-72
2021/01/31 13:10:11;;;;;;;17.37;3.20;;;21.70;99.90;;;;;;5053125;28;20627;-70
2021/01/31 13:12:39;;;;;;;23.97;3.30;;;21.70;99.90;;;;;;5052446;28;20556;-73
2021/01/31 13:15:08;;;;;;;17.93;2.80;;;21.70;99.90;;;;;;5053804;28;20262;-71